Spencer, IA

10:40 AM CST on January 18, 2017 (GMT -0600)
MRSPI4 | | Change Station

Elev 1485 ft 43.13 °N, 95.09 °W | Updated 11 minutes ago

Clear
Clear
--
Feels Like --
N
12.0
Wind Variable Wind from SSW
Gusts 17.0 mph

Today
High -- | Low -- °F
--% Chance of Precip.
Yesterday
High -- | Low -- °F
Precip. -- in
Pressure 29.98 in
Visibility 10.0 miles
Clouds Clear
Dew Point --
Humidity 80%
Rainfall in
Snow Depth Not available.
7:47 AM 5:14 PM
Waning Gibbous, 62% visible
METAR KSPW 181553Z AUTO 20012KT 10SM CLR 01/M01 A2993 RMK AO2 SLP151 T00061011
Pressure 29.98 in
Visibility 10.0 miles
Clouds Clear
Dew Point --
Humidity 80%
Rainfall in
Snow Depth Not available.
7:47 AM 5:14 PM
Waning Gibbous, 62% visible
METAR KSPW 181553Z AUTO 20012KT 10SM CLR 01/M01 A2993 RMK AO2 SLP151 T00061011

Get Your Daily Forecast Email!

Thanks for signing up!

Be on the lookout for a verification email in your inbox.

You'll start receiving the daily forecast at 8 AM.

×

10-Day Weather Forecast

Almanac

Astronomy

Jan. 18, 2017 Rise Set
Actual Time
Civil Twilight
Nautical Twilight
Astronomical Twilight
Moon
Length of Visible Light
Length of Day
Tomorrow will be .
, % of the Moon is Illuminated

Today's Extremes

State Highs State Lows

Community

WunderPhotos

Upload Photos

1,962,540 photos uploaded!

WunderBlog® & News

Nearby

Air Quality

  Air Quality AQ Index Pollutant
Not available.

Snow Depth

Station Depth Elevation

Earthquake Activity

City Distance Mag. Time & Date
Minimum magnitude displayed is 2.5.

Coastal Water Temperatures

Place Temperature

Stations

Nearby Weather Stations

Station Location Temp. Windchill Dew Point Humidity Wind Precip. Elev Updated Type
                   

Watches & Warnings

There are currently no watches in effect.